Time;durP1;ratioP1;P1;durP2;ratioP2;P2;SDS_P1;SDS_P2;PMS_P1;PMS_P2;Temp;Humidity;BMP_temperature;BMP_pressure;BME280_temperature;BME280_humidity;BME280_pressure;Samples;Min_cycle;Max_cycle;Signal;HPM_P1;HPM_P2
2023/01/01 00:01:28;;;;;;;38.35;22.17;;;;;;;;;;6292487;22;20010;-91
2023/01/01 00:04:36;;;;;;;;;;;;;;;;;;;;;
2023/01/01 00:07:45;;;;;;;46.50;27.17;;;;;;;;;;6316042;22;20348;-92
2023/01/01 00:10:29;;;;;;;41.80;27.67;;;;;;;;;;6316154;22;20014;-88
2023/01/01 00:13:19;;;;;;;31.60;20.50;;;;;;;;;;6314568;22;20451;-92
2023/01/01 00:16:22;;;;;;;;;;;;;;;;;;;;;
2023/01/01 00:22:30;;;;;;;35.35;23.15;;;;;;;;;;6315153;22;20440;-91
2023/01/01 00:25:17;;;;;;;46.10;27.33;;;;;;;;;;6292717;22;20421;-89
2023/01/01 00:28:28;;;;;;;51.90;33.15;;;;;;;;;;6292303;22;20018;-92
2023/01/01 00:31:21;;;;;;;52.72;30.65;;;;;;;;;;6260738;22;20018;-89
2023/01/01 00:34:06;;;;;;;46.25;27.35;;;;;;;;;;6291684;22;20072;-88
2023/01/01 00:36:51;;;;;;;40.75;27.02;;;;;;;;;;6292440;22;20014;-89
2023/01/01 00:39:45;;;;;;;49.90;30.27;;;;;;;;;;6315583;22;20396;-90
2023/01/01 00:42:40;;;;;;;33.78;22.92;;;;;;;;;;6292156;22;20457;-90
2023/01/01 00:45:28;;;;;;;38.15;24.02;;;;;;;;;;6291791;22;20072;-92
2023/01/01 00:48:15;;;;;;;42.50;24.38;;;;;;;;;;6291743;22;20018;-89
2023/01/01 00:51:02;;;;;;;35.88;21.08;;;;;;;;;;6284523;22;20056;-90
2023/01/01 00:54:05;;;;;;;35.00;21.63;;;;;;;;;;6285385;22;20056;-91
2023/01/01 00:56:52;;;;;;;28.05;18.63;;;;;;;;;;6263737;22;20065;-88
2023/01/01 00:59:41;;;;;;;37.85;19.95;;;;;;;;;;6285127;22;20109;-89
2023/01/01 01:02:29;;;;;;;31.40;18.90;;;;;;;;;;6263657;22;20076;-89
2023/01/01 01:05:16;;;;;;;29.08;19.25;;;;;;;;;;6284686;22;20025;-86
2023/01/01 01:08:00;;;;;;;30.73;19.08;;;;;;;;;;6285118;22;20064;-92
2023/01/01 01:10:45;;;;;;;32.53;19.02;;;;;;;;;;6263534;22;20017;-89
2023/01/01 01:13:29;;;;;;;36.42;19.98;;;;;;;;;;6284526;22;20014;-89
2023/01/01 01:16:15;;;;;;;32.90;19.90;;;13.40;99.90;;;;;;6284788;22;20137;-90
2023/01/01 01:19:17;;;;;;;28.25;20.08;;;;;;;;;;6284603;22;20054;-92
2023/01/01 01:22:08;;;;;;;32.50;20.13;;;;;;;;;;6285080;22;20014;-90
2023/01/01 01:24:55;;;;;;;40.00;23.13;;;;;;;;;;6284985;22;20041;-90
2023/01/01 01:28:05;;;;;;;43.25;26.30;;;;;;;;;;6284599;22;20018;-91
2023/01/01 01:33:58;;;;;;;42.40;26.20;;;;;;;;;;6302143;22;20042;-91
2023/01/01 01:36:52;;;;;;;36.58;24.58;;;;;;;;;;6284679;22;20060;-91
2023/01/01 01:40:11;;;;;;;;;;;;;;;;;;;;;
2023/01/01 01:42:46;;;;;;;44.55;26.52;;;13.10;99.90;;;;;;6289027;22;20023;-90
2023/01/01 01:45:41;;;;;;;41.47;29.13;;;;;;;;;;6284509;22;20013;-92
2023/01/01 01:48:56;;;;;;;42.22;26.55;;;;;;;;;;6284298;22;20513;-90
2023/01/01 01:51:41;;;;;;;38.97;23.83;;;;;;;;;;6307408;22;20065;-89
2023/01/01 01:54:27;;;;;;;39.70;23.35;;;;;;;;;;6283955;22;20334;-89
2023/01/01 01:57:20;;;;;;;47.25;28.98;;;;;;;;;;6284324;22;20045;-89
2023/01/01 02:00:14;;;;;;;36.70;24.05;;;;;;;;;;6284410;22;20018;-91
2023/01/01 02:03:14;;;;;;;;;;;;;;;;;;;;;
2023/01/01 02:05:59;;;;;;;32.80;22.67;;;;;;;;;;6307568;22;20018;-89
2023/01/01 02:08:44;;;;;;;39.05;22.55;;;;;;;;;;6284448;22;20033;-89
2023/01/01 02:12:10;;;;;;;39.03;23.52;;;13.00;99.90;;;;;;6283994;22;20011;-90
2023/01/01 02:15:06;;;;;;;38.55;20.67;;;;;;;;;;6284378;22;20030;-90
2023/01/01 02:18:00;;;;;;;32.25;20.63;;;;;;;;;;6284424;22;20338;-90
2023/01/01 02:21:02;;;;;;;34.05;20.33;;;;;;;;;;6284402;22;20080;-90
2023/01/01 02:24:43;;;;;;;33.10;19.52;;;13.10;99.90;;;;;;6284168;22;20036;-90
2023/01/01 02:28:04;;;;;;;;;;;;;;;;;;;;;
2023/01/01 02:31:28;;;;;;;32.28;18.48;;;13.20;99.90;;;;;;6307322;22;20015;-90
2023/01/01 02:34:19;;;;;;;28.90;17.27;;;13.20;99.90;;;;;;6284137;22;20009;-90
2023/01/01 02:37:33;;;;;;;41.10;25.35;;;13.30;99.90;;;;;;6284396;22;20548;-90
2023/01/01 02:40:38;;;;;;;;;;;;;;;;;;;;;
2023/01/01 02:43:32;;;;;;;37.00;22.05;;;;;;;;;;6306959;22;20018;-90
2023/01/01 02:46:20;;;;;;;23.23;14.90;;;;;;;;;;6284076;22;20092;-89
2023/01/01 02:49:07;;;;;;;23.30;12.90;;;;;;;;;;6284295;22;20014;-90
2023/01/01 02:52:07;;;;;;;24.27;12.70;;;13.30;99.90;;;;;;6283750;22;20096;-91
2023/01/01 02:55:07;;;;;;;22.17;11.88;;;13.30;99.90;;;;;;6283977;22;20018;-89
2023/01/01 03:00:17;;;;;;;26.40;12.18;;;13.40;99.90;;;;;;6283712;22;20018;-88
2023/01/01 03:01:18;;;;;;;26.17;9.32;;;13.30;99.90;;;;;;6307135;22;20014;-90
2023/01/01 03:04:28;;;;;;;20.35;10.48;;;;;;;;;;6284181;22;20033;-90
2023/01/01 03:07:25;;;;;;;21.17;9.30;;;;;;;;;;6284007;22;20444;-88
2023/01/01 03:10:28;;;;;;;20.98;8.90;;;13.40;99.90;;;;;;6284133;22;20109;-89
2023/01/01 03:13:23;;;;;;;22.60;8.15;;;;;;;;;;6283723;22;20560;-91
2023/01/01 03:16:25;;;;;;;17.02;7.90;;;;;;;;;;6283931;22;20029;-90
2023/01/01 03:19:34;;;;;;;18.23;7.63;;;;;;;;;;6283792;22;20049;-90
2023/01/01 03:22:38;;;;;;;23.48;7.93;;;13.40;99.90;;;;;;6306882;22;20409;-90
2023/01/01 03:25:30;;;;;;;17.30;6.15;;;;;;;;;;6283879;22;20575;-90
2023/01/01 03:28:36;;;;;;;11.02;4.93;;;13.60;99.90;;;;;;6283726;22;20029;-90
2023/01/01 03:31:31;;;;;;;14.35;5.50;;;;;;;;;;6283930;22;20018;-89
2023/01/01 03:34:21;;;;;;;11.65;4.55;;;13.60;99.90;;;;;;6283753;22;20445;-89
2023/01/01 03:37:14;;;;;;;14.75;4.90;;;;;;;;;;6283802;22;20072;-89
2023/01/01 03:40:09;;;;;;;13.95;5.40;;;13.60;99.90;;;;;;6283886;22;20019;-91
2023/01/01 03:43:04;;;;;;;13.65;5.72;;;13.70;99.90;;;;;;6263533;22;20014;-89
2023/01/01 03:45:56;;;;;;;12.80;4.40;;;13.60;99.90;;;;;;6283379;22;20079;-89
2023/01/01 03:48:56;;;;;;;16.85;8.00;;;;;;;;;;6262397;22;20022;-90
2023/01/01 03:51:46;;;;;;;21.63;8.65;;;;;;;;;;6283079;22;20404;-91
2023/01/01 03:54:31;;;;;;;16.40;5.82;;;;;;;;;;6283200;22;20014;-92
2023/01/01 03:57:34;;;;;;;14.38;4.45;;;;;;;;;;6283774;22;20456;-90
2023/01/01 04:00:42;;;;;;;15.25;4.80;;;;;;;;;;6283888;22;20025;-90
2023/01/01 04:03:45;;;;;;;16.02;5.35;;;13.40;99.90;;;;;;6283636;22;20009;-90
2023/01/01 04:06:33;;;;;;;10.73;5.28;;;;;;;;;;6283937;22;20470;-91
2023/01/01 04:09:27;;;;;;;13.48;4.72;;;13.40;99.90;;;;;;6283875;22;20494;-91
2023/01/01 04:12:25;;;;;;;;;;;;;;;;;;;;;
2023/01/01 04:15:43;;;;;;;;;;;;;;;;;;;;;
2023/01/01 04:22:09;;;;;;;16.20;4.43;;;13.00;99.90;;;;;;6306501;22;20015;-91
2023/01/01 04:24:59;;;;;;;13.18;4.90;;;;;;;;;;6263031;22;20300;-92
2023/01/01 04:28:02;;;;;;;14.23;5.05;;;;;;;;;;6264380;22;20387;-91
2023/01/01 04:30:53;;;;;;;15.10;5.55;;;;;;;;;;6284063;22;20068;-91
2023/01/01 04:33:41;;;;;;;14.63;5.20;;;;;;;;;;6264516;22;20046;-90
2023/01/01 04:36:44;;;;;;;16.23;5.35;;;;;;;;;;6285737;22;20057;-91
2023/01/01 04:39:45;;;;;;;12.68;5.82;;;12.50;99.90;;;;;;6285425;22;20085;-91
2023/01/01 04:46:12;;;;;;;;;;;;;;;;;;;;;
2023/01/01 04:49:10;;;;;;;17.23;4.65;;;;;;;;;;6308306;22;20466;-90
2023/01/01 04:52:03;;;;;;;12.68;3.40;;;;;;;;;;6263925;22;20322;-91
2023/01/01 04:54:53;;;;;;;14.88;4.05;;;;;;;;;;6284880;22;20456;-91
2023/01/01 04:57:38;;;;;;;10.32;3.22;;;;;;;;;;6285149;22;20468;-93
2023/01/01 05:00:23;;;;;;;11.18;2.83;;;;;;;;;;6285444;22;20026;-91
2023/01/01 05:03:11;;;;;;;12.60;3.80;;;;;;;;;;6285095;22;20015;-91
2023/01/01 05:06:05;;;;;;;8.50;2.97;;;;;;;;;;6284835;22;20010;-90
2023/01/01 05:08:51;;;;;;;11.18;3.05;;;;;;;;;;6284697;22;20018;-90
2023/01/01 05:11:46;;;;;;;;;;;;;;;;;;;;;
2023/01/01 05:14:44;;;;;;;;;;;;;;;;;;;;;
2023/01/01 05:17:32;;;;;;;9.70;2.88;;;;;;;;;;6308332;22;20010;-90
2023/01/01 05:20:24;;;;;;;8.50;2.78;;;;;;;;;;6264136;22;20034;-91
2023/01/01 05:23:20;;;;;;;12.45;3.17;;;;;;;;;;6285026;22;20010;-91
2023/01/01 05:26:19;;;;;;;12.32;3.17;;;;;;;;;;6284668;22;20040;-90
2023/01/01 05:29:03;;;;;;;11.80;3.65;;;;;;;;;;6284451;22;20022;-91
2023/01/01 05:31:56;;;;;;;10.50;2.92;;;;;;;;;;6284487;22;20011;-90
2023/01/01 05:35:06;;;;;;;14.80;3.42;;;;;;;;;;6284811;22;20014;-91
2023/01/01 05:37:50;;;;;;;8.18;2.63;;;;;;;;;;6307453;22;20061;-90
2023/01/01 05:40:42;;;;;;;7.20;2.20;;;12.90;99.90;;;;;;6307990;22;20014;-89
2023/01/01 05:43:30;;;;;;;7.82;2.40;;;;;;;;;;6263908;22;20022;-91
2023/01/01 05:46:43;;;;;;;9.15;1.98;;;13.00;99.90;;;;;;6263310;22;20384;-90
2023/01/01 05:49:39;;;;;;;7.43;2.23;;;;;;;;;;6284994;22;20017;-89
2023/01/01 05:52:26;;;;;;;9.13;2.28;;;;;;;;;;6284722;22;20022;-88
2023/01/01 05:55:11;;;;;;;6.88;2.78;;;;;;;;;;6285355;22;20128;-89
2023/01/01 05:58:05;;;;;;;6.97;2.05;;;;;;;;;;6284040;22;20068;-91
2023/01/01 06:00:50;;;;;;;11.27;3.15;;;;;;;;;;6263330;22;20039;-89
2023/01/01 06:03:34;;;;;;;10.70;3.20;;;;;;;;;;6284591;22;20011;-88
2023/01/01 06:06:31;;;;;;;13.25;2.45;;;13.00;99.90;;;;;;6307772;22;20014;-91
2023/01/01 06:09:19;;;;;;;5.97;2.00;;;;;;;;;;6284869;22;20511;-88
2023/01/01 06:12:04;;;;;;;6.20;2.28;;;;;;;;;;6284114;22;20046;-89
2023/01/01 06:14:54;;;;;;;7.95;2.38;;;;;;;;;;6284113;22;20380;-91
2023/01/01 06:17:47;;;;;;;9.15;1.92;;;;;;;;;;6284316;22;20030;-90
2023/01/01 06:20:34;;;;;;;5.45;1.80;;;;;;;;;;6283380;22;20037;-90
2023/01/01 06:23:19;;;;;;;6.70;1.45;;;;;;;;;;6284486;22;20010;-90
2023/01/01 06:26:11;;;;;;;5.78;1.58;;;;;;;;;;6283981;22;20095;-89
2023/01/01 06:29:04;;;;;;;11.07;2.85;;;;;;;;;;6283756;22;20445;-91
2023/01/01 06:31:59;;;;;;;5.30;1.60;;;;;;;;;;6284644;22;20052;-90
2023/01/01 06:34:46;;;;;;;6.80;1.60;;;;;;;;;;6284204;22;20409;-91
2023/01/01 06:37:34;;;;;;;7.57;1.38;;;;;;;;;;6284149;22;20060;-89
2023/01/01 06:40:21;;;;;;;6.72;1.38;;;;;;;;;;6284345;22;20056;-90
2023/01/01 06:43:13;;;;;;;9.25;2.20;;;;;;;;;;6262201;22;20480;-91
2023/01/01 06:46:02;;;;;;;5.10;1.40;;;;;;;;;;6263281;22;20018;-90
2023/01/01 06:48:47;;;;;;;5.90;1.10;;;;;;;;;;6283931;22;20017;-88
2023/01/01 06:51:40;;;;;;;6.57;1.40;;;12.60;99.90;;;;;;6283684;22;20010;-91
2023/01/01 06:54:29;;;;;;;4.85;1.77;;;;;;;;;;6284018;22;20086;-90
2023/01/01 06:57:18;;;;;;;7.90;1.35;;;;;;;;;;6262702;22;20080;-89
2023/01/01 07:00:23;;;;;;;10.48;2.55;;;;;;;;;;6262485;22;20027;-90
2023/01/01 07:03:26;;;;;;;6.72;1.40;;;;;;;;;;6283456;22;20524;-90
2023/01/01 07:06:19;;;;;;;8.48;1.40;;;;;;;;;;6262881;22;20072;-90
2023/01/01 07:09:12;;;;;;;12.40;2.05;;;;;;;;;;6283587;22;20053;-90
2023/01/01 07:12:05;;;;;;;9.45;1.65;;;;;;;;;;6283403;22;20009;-91
2023/01/01 07:15:00;;;;;;;;;;;;;;;;;;;;;
2023/01/01 07:17:57;;;;;;;9.23;2.95;;;;;;;;;;6307222;22;20090;-91
2023/01/01 07:20:57;;;;;;;7.07;2.22;;;12.30;99.90;;;;;;6284030;22;20125;-90
2023/01/01 07:24:05;;;;;;;10.32;2.15;;;;;;;;;;6283834;22;20014;-89
2023/01/01 07:27:11;;;;;;;13.38;2.45;;;;;;;;;;6284033;22;20014;-90
2023/01/01 07:30:05;;;;;;;10.88;2.22;;;;;;;;;;6306907;22;20018;-91
2023/01/01 07:32:54;;;;;;;10.27;2.65;;;;;;;;;;6283739;22;20015;-91
2023/01/01 07:35:44;;;;;;;10.43;1.88;;;;;;;;;;6283896;22;20022;-90
2023/01/01 07:41:36;;;;;;;11.13;2.20;;;;;;;;;;6300871;22;20090;-89
2023/01/01 07:44:33;;;;;;;7.00;2.20;;;;;;;;;;6283151;22;20029;-91
2023/01/01 07:47:28;;;;;;;12.90;2.20;;;;;;;;;;6283278;22;20010;-90
2023/01/01 07:50:16;;;;;;;;;;;12.20;99.90;;;;;;6283770;22;20086;-89
2023/01/01 07:53:02;;;;;;;22.77;3.35;;;;;;;;;;6283631;22;20360;-88
2023/01/01 07:55:50;;;;;;;11.13;2.28;;;;;;;;;;6284526;22;20030;-89
2023/01/01 07:58:38;;;;;;;10.38;2.38;;;;;;;;;;6283626;22;20061;-89
2023/01/01 08:01:23;;;;;;;9.80;2.47;;;;;;;;;;6285235;22;20154;-89
2023/01/01 08:04:10;;;;;;;7.90;2.53;;;;;;;;;;6284907;22;20049;-89
2023/01/01 08:06:56;;;;;;;16.50;3.00;;;;;;;;;;6285608;22;20463;-90
2023/01/01 08:09:44;;;;;;;8.43;2.10;;;;;;;;;;6285563;22;20073;-90
2023/01/01 08:12:31;;;;;;;10.82;1.90;;;;;;;;;;6285008;22;20014;-90
2023/01/01 08:15:18;;;;;;;12.32;2.60;;;;;;;;;;6284633;22;20105;-89
2023/01/01 08:18:06;;;;;;;10.73;3.35;;;;;;;;;;6308277;22;20104;-91
2023/01/01 08:21:03;;;;;;;15.38;2.53;;;;;;;;;;6285010;22;20038;-90
2023/01/01 08:23:48;;;;;;;10.50;3.28;;;;;;;;;;6265615;22;20018;-90
2023/01/01 08:26:33;;;;;;;12.07;2.67;;;;;;;;;;6285172;22;20010;-90
2023/01/01 08:29:20;;;;;;;17.00;2.58;;;;;;;;;;6284590;22;20018;-90
2023/01/01 08:32:07;;;;;;;12.15;3.45;;;;;;;;;;6285265;22;20129;-91
2023/01/01 08:35:01;;;;;;;12.00;2.58;;;;;;;;;;6285274;22;20376;-89
2023/01/01 08:37:46;;;;;;;13.07;2.70;;;;;;;;;;6265030;22;20468;-89
2023/01/01 08:40:31;;;;;;;11.10;2.38;;;;;;;;;;6284356;22;20060;-90
2023/01/01 08:43:15;;;;;;;13.02;2.63;;;;;;;;;;6284600;22;20011;-90
2023/01/01 08:46:00;;;;;;;10.50;2.40;;;;;;;;;;6284722;22;20013;-89
2023/01/01 08:48:45;;;;;;;12.80;3.47;;;;;;;;;;6284761;22;20018;-90
2023/01/01 08:51:29;;;;;;;12.85;2.67;;;;;;;;;;6284048;22;20582;-89
2023/01/01 08:54:14;;;;;;;17.17;3.70;;;;;;;;;;6284086;22;20034;-88
2023/01/01 08:57:01;;;;;;;13.07;3.08;;;;;;;;;;6307984;22;20369;-89
2023/01/01 08:59:48;;;;;;;18.55;2.88;;;;;;;;;;6284822;22;20021;-89
2023/01/01 09:02:35;;;;;;;9.90;2.65;;;;;;;;;;6284393;22;20045;-89
2023/01/01 09:05:22;;;;;;;12.15;2.83;;;;;;;;;;6284061;22;20436;-90
2023/01/01 09:08:09;;;;;;;20.52;3.45;;;;;;;;;;6262898;22;20084;-88
2023/01/01 09:11:00;;;;;;;14.07;3.20;;;;;;;;;;6284486;22;20376;-89
2023/01/01 09:13:52;;;;;;;13.38;3.00;;;;;;;;;;6284881;22;20060;-89
2023/01/01 09:16:39;;;;;;;16.08;3.45;;;;;;;;;;6284031;22;20096;-91
2023/01/01 09:19:30;;;;;;;11.13;2.45;;;;;;;;;;6307244;22;20076;-90
2023/01/01 09:22:17;;;;;;;15.35;2.70;;;;;;;;;;6284128;22;20010;-91
2023/01/01 09:25:12;;;;;;;;;;;;;;;;;;;;;
2023/01/01 09:28:04;;;;;;;13.23;2.25;;;;;;;;;;6307576;22;20065;-90
2023/01/01 09:30:51;;;;;;;18.48;3.50;;;;;;;;;;6284812;22;20014;-89
2023/01/01 09:33:38;;;;;;;19.40;3.53;;;;;;;;;;6284345;22;20006;-89
2023/01/01 09:36:23;;;;;;;12.38;2.45;;;;;;;;;;6283880;22;20129;-88
2023/01/01 09:39:07;;;;;;;11.32;2.10;;;;;;;;;;6284502;22;20349;-89
2023/01/01 09:41:57;;;;;;;15.30;2.80;;;;;;;;;;6284457;22;20014;-89
2023/01/01 09:45:15;;;;;;;14.43;3.70;;;12.00;99.90;;;;;;6284628;22;20518;-90
2023/01/01 09:48:07;;;;;;;10.20;2.30;;;;;;;;;;6284219;22;20060;-88
2023/01/01 09:50:56;;;;;;;14.90;2.70;;;12.00;99.90;;;;;;6284666;22;20495;-89
2023/01/01 09:53:55;;;;;;;11.68;2.60;;;;;;;;;;6284433;22;20038;-89
2023/01/01 09:56:44;;;;;;;11.98;2.30;;;12.00;99.90;;;;;;6283961;22;20057;-90
2023/01/01 09:59:29;;;;;;;9.13;2.58;;;;;;;;;;6283722;22;20117;-89
2023/01/01 10:02:51;;;;;;;16.80;2.67;;;12.00;99.90;;;;;;6284446;22;20076;-89
2023/01/01 10:05:38;;;;;;;11.73;3.00;;;;;;;;;;6283808;22;20483;-90
2023/01/01 10:08:33;;;;;;;13.70;2.63;;;;;;;;;;6283740;22;20072;-89
2023/01/01 10:11:51;;;;;;;18.90;3.72;;;12.00;99.90;;;;;;6284178;22;20010;-90
2023/01/01 10:14:38;;;;;;;19.23;4.03;;;;;;;;;;6289122;22;20086;-90
2023/01/01 10:17:40;;;;;;;17.60;2.38;;;;;;;;;;6283527;22;20401;-90
2023/01/01 10:20:31;;;;;;;15.45;2.47;;;;;;;;;;6283497;22;20060;-89
2023/01/01 10:23:33;;;;;;;15.27;2.40;;;;;;;;;;6283592;22;20033;-89
2023/01/01 10:26:21;;;;;;;15.07;3.42;;;11.90;99.90;;;;;;6283765;22;20030;-88
2023/01/01 10:29:20;;;;;;;13.02;2.70;;;;;;;;;;6306920;22;20395;-90
2023/01/01 10:32:21;;;;;;;20.48;4.10;;;;;;;;;;6284226;22;20011;-91
2023/01/01 10:35:12;;;;;;;15.23;2.92;;;;;;;;;;6284046;22;20333;-90
2023/01/01 10:38:00;;;;;;;19.40;2.92;;;;;;;;;;6307356;22;20359;-88
2023/01/01 10:40:47;;;;;;;13.70;2.22;;;;;;;;;;6284203;22;20329;-89
2023/01/01 10:43:35;;;;;;;12.57;2.13;;;;;;;;;;6283385;22;20017;-88
2023/01/01 10:46:24;;;;;;;10.48;2.60;;;;;;;;;;6263198;22;20069;-92
2023/01/01 10:49:10;;;;;;;13.80;2.17;;;;;;;;;;6284486;22;20045;-91
2023/01/01 10:51:57;;;;;;;12.52;2.10;;;;;;;;;;6283183;22;20022;-88
2023/01/01 10:54:51;;;;;;;13.88;1.77;;;;;;;;;;6303668;22;20064;-89
2023/01/01 10:57:39;;;;;;;12.43;3.22;;;;;;;;;;6259925;22;20436;-90
2023/01/01 11:00:27;;;;;;;17.13;2.60;;;;;;;;;;6260460;22;20087;-90
2023/01/01 11:03:15;;;;;;;10.45;2.15;;;;;;;;;;6281620;22;20064;-90
2023/01/01 11:06:05;;;;;;;19.85;3.30;;;;;;;;;;6281809;22;20010;-89
2023/01/01 11:09:02;;;;;;;8.95;2.00;;;;;;;;;;6282435;22;20076;-91
2023/01/01 11:11:55;;;;;;;9.10;2.63;;;;;;;;;;6306630;22;20060;-90
2023/01/01 11:14:58;;;;;;;9.93;2.38;;;;;;;;;;6283533;22;20376;-89
2023/01/01 11:18:02;;;;;;;15.35;3.05;;;;;;;;;;6261843;22;20349;-90
2023/01/01 11:21:01;;;;;;;13.60;5.10;;;;;;;;;;6283434;22;20436;-90
2023/01/01 11:23:57;;;;;;;14.02;2.00;;;;;;;;;;6283498;22;20091;-89
2023/01/01 11:26:47;;;;;;;12.82;2.53;;;;;;;;;;6283445;22;20060;-90
2023/01/01 11:29:34;;;;;;;13.93;2.08;;;;;;;;;;6283338;22;20018;-90
2023/01/01 11:32:55;;;;;;;18.10;2.95;;;;;;;;;;6262195;22;20072;-89
2023/01/01 11:35:50;;;;;;;12.48;1.90;;;;;;;;;;6306786;22;20033;-89
2023/01/01 11:38:35;;;;;;;13.68;2.20;;;;;;;;;;6283315;22;20017;-91
2023/01/01 11:41:19;;;;;;;17.85;4.38;;;;;;;;;;6283687;22;20014;-89
2023/01/01 11:44:04;;;;;;;17.42;2.97;;;;;;;;;;6283641;22;20014;-90
2023/01/01 11:46:51;;;;;;;12.80;2.75;;;;;;;;;;6283366;22;20011;-91
2023/01/01 11:49:36;;;;;;;17.25;2.30;;;;;;;;;;6283112;22;20015;-89
2023/01/01 11:52:35;;;;;;;18.63;3.55;;;;;;;;;;6283677;22;20062;-90
2023/01/01 11:55:25;;;;;;;9.50;2.13;;;;;;;;;;6283701;22;20061;-89
2023/01/01 11:58:22;;;;;;;14.13;2.83;;;;;;;;;;6283560;22;20456;-90
2023/01/01 12:01:29;;;;;;;10.75;3.33;;;12.20;99.90;;;;;;6283711;22;20061;-89
2023/01/01 12:04:17;;;;;;;11.95;2.50;;;;;;;;;;6283816;22;20010;-89
2023/01/01 12:07:08;;;;;;;20.08;2.42;;;;;;;;;;6283590;22;20014;-90
2023/01/01 12:09:56;;;;;;;14.73;3.08;;;;;;;;;;6285322;22;20017;-90
2023/01/01 12:13:01;;;;;;;10.30;2.55;;;;;;;;;;6283246;22;20010;-89
2023/01/01 12:15:46;;;;;;;13.35;2.90;;;;;;;;;;6283099;22;20445;-90
2023/01/01 12:18:50;;;;;;;13.40;3.15;;;;;;;;;;6283523;22;20506;-90
2023/01/01 12:21:35;;;;;;;11.55;2.53;;;;;;;;;;6283621;22;20034;-90
2023/01/01 12:24:20;;;;;;;9.20;2.70;;;;;;;;;;6283422;22;20017;-89
2023/01/01 12:27:05;;;;;;;10.68;2.90;;;;;;;;;;6283569;22;20059;-89
2023/01/01 12:29:51;;;;;;;12.60;3.03;;;;;;;;;;6283223;22;20018;-90
2023/01/01 12:33:02;;;;;;;16.63;3.63;;;12.60;99.90;;;;;;6283420;22;20025;-90
2023/01/01 12:36:19;;;;;;;17.17;2.90;;;;;;;;;;6282988;22;20010;-89
2023/01/01 12:39:04;;;;;;;14.95;2.67;;;;;;;;;;6282475;22;20021;-89
2023/01/01 12:41:57;;;;;;;13.02;2.63;;;;;;;;;;6283044;22;20015;-89
2023/01/01 12:44:57;;;;;;;;;;;12.50;99.90;;;;;;6283502;22;20030;-90
2023/01/01 12:47:49;;;;;;;13.80;3.17;;;;;;;;;;6285012;22;19909;-90
2023/01/01 12:50:49;;;;;;;12.85;3.10;;;;;;;;;;6285351;22;20041;-90
2023/01/01 12:53:37;;;;;;;16.05;3.40;;;;;;;;;;6285654;22;20018;-90
2023/01/01 12:56:28;;;;;;;9.18;2.60;;;;;;;;;;6285141;22;20017;-90
2023/01/01 12:59:16;;;;;;;16.10;4.10;;;;;;;;;;6285076;22;20038;-91
2023/01/01 13:02:02;;;;;;;17.50;2.67;;;;;;;;;;6284811;22;20038;-91
2023/01/01 13:05:01;;;;;;;14.20;3.22;;;;;;;;;;6284840;22;20491;-91
2023/01/01 13:07:48;;;;;;;12.93;3.38;;;;;;;;;;6284786;22;20010;-91
2023/01/01 13:10:40;;;;;;;10.27;2.28;;;;;;;;;;6285048;22;20013;-91
2023/01/01 13:13:45;;;;;;;14.43;3.67;;;;;;;;;;6285057;22;20053;-90
2023/01/01 13:16:51;;;;;;;11.63;2.40;;;;;;;;;;6308313;22;20100;-90
2023/01/01 13:19:38;;;;;;;12.75;2.47;;;;;;;;;;6285242;22;20456;-90
2023/01/01 13:22:29;;;;;;;16.40;3.38;;;;;;;;;;6264335;22;20060;-90
2023/01/01 13:25:14;;;;;;;17.35;4.32;;;;;;;;;;6284813;22;20036;-90
2023/01/01 13:28:01;;;;;;;14.18;2.88;;;;;;;;;;6284514;22;20015;-91
2023/01/01 13:31:06;;;;;;;12.02;2.65;;;;;;;;;;6307916;22;20056;-91
2023/01/01 13:34:36;;;;;;;12.35;2.38;;;12.40;99.90;;;;;;6263503;22;20015;-90
2023/01/01 13:37:23;;;;;;;16.67;3.00;;;;;;;;;;6284896;22;20026;-91
2023/01/01 13:40:14;;;;;;;10.68;2.30;;;;;;;;;;6284518;22;20021;-88
2023/01/01 13:43:01;;;;;;;11.20;2.65;;;;;;;;;;6281495;22;20449;-90
2023/01/01 13:45:54;;;;;;;12.40;3.15;;;;;;;;;;6285063;22;20056;-92
2023/01/01 13:48:41;;;;;;;17.63;2.55;;;;;;;;;;6266114;22;20022;-91
2023/01/01 13:51:39;;;;;;;14.73;3.15;;;;;;;;;;6284682;22;20334;-89
2023/01/01 13:54:40;;;;;;;;;;;;;;;;;;;;;
2023/01/01 13:57:28;;;;;;;12.70;3.03;;;;;;;;;;6307787;22;20018;-90
2023/01/01 14:00:16;;;;;;;18.15;3.58;;;;;;;;;;6285328;22;20018;-90
2023/01/01 14:03:11;;;;;;;9.93;2.42;;;;;;;;;;6284149;22;20476;-90
2023/01/01 14:06:05;;;;;;;20.58;3.80;;;;;;;;;;6283536;22;20026;-92
2023/01/01 14:09:12;;;;;;;;;;;12.20;99.90;;;;;;6307794;22;20445;-90
2023/01/01 14:12:09;;;;;;;12.80;3.05;;;;;;;;;;6283828;22;19910;-91
2023/01/01 14:14:59;;;;;;;13.23;2.72;;;;;;;;;;6284042;22;20049;-91
2023/01/01 14:17:55;;;;;;;19.08;3.03;;;;;;;;;;6263156;22;20018;-90
2023/01/01 14:20:44;;;;;;;9.00;2.88;;;;;;;;;;6264458;22;20018;-89
2023/01/01 14:23:42;;;;;;;11.48;2.60;;;;;;;;;;6284249;22;20010;-89
2023/01/01 14:26:31;;;;;;;14.90;4.43;;;;;;;;;;6284091;22;20009;-91
2023/01/01 14:29:29;;;;;;;15.70;3.05;;;;;;;;;;6283656;22;20098;-90
2023/01/01 14:32:18;;;;;;;16.13;4.30;;;;;;;;;;6283779;22;20018;-91
2023/01/01 14:35:15;;;;;;;14.93;3.67;;;;;;;;;;6283483;22;20013;-90
2023/01/01 14:38:16;;;;;;;20.02;4.45;;;;;;;;;;6283564;22;20018;-90
2023/01/01 14:41:13;;;;;;;;;;;;;;;;;;;;;
2023/01/01 14:44:05;;;;;;;18.40;3.03;;;;;;;;;;6306717;22;20041;-90
2023/01/01 14:46:55;;;;;;;20.17;4.65;;;;;;;;;;6284137;22;20085;-91
2023/01/01 14:49:44;;;;;;;16.85;3.50;;;;;;;;;;6284366;22;20076;-91
2023/01/01 14:52:40;;;;;;;15.27;4.00;;;;;;;;;;6284019;22;20576;-92
2023/01/01 14:55:31;;;;;;;11.50;4.57;;;;;;;;;;6284140;22;20121;-91
2023/01/01 14:58:23;;;;;;;17.75;4.45;;;;;;;;;;6283760;22;20079;-89
2023/01/01 15:01:30;;;;;;;9.88;2.67;;;;;;;;;;6283561;22;20014;-89
2023/01/01 15:04:23;;;;;;;14.88;3.40;;;;;;;;;;6283581;22;20461;-90
2023/01/01 15:07:25;;;;;;;16.15;3.13;;;;;;;;;;6283639;22;20013;-90
2023/01/01 15:10:12;;;;;;;17.88;3.53;;;;;;;;;;6306563;22;20018;-89
2023/01/01 15:12:57;;;;;;;14.27;3.15;;;;;;;;;;6283857;22;20346;-90
2023/01/01 15:15:46;;;;;;;14.60;2.95;;;;;;;;;;6284046;22;20068;-90
2023/01/01 15:18:56;;;;;;;;;;;;;;;;;;;;;
2023/01/01 15:21:41;;;;;;;16.83;3.92;;;;;;;;;;6306928;22;20086;-89
2023/01/01 15:24:29;;;;;;;18.10;4.65;;;;;;;;;;6283604;22;20341;-88
2023/01/01 15:34:33;;;;;;;11.00;3.20;;;;;;;;;;6280080;22;20056;-89
2023/01/01 15:37:29;;;;;;;13.75;2.95;;;;;;;;;;6290655;22;20049;-90
2023/01/01 15:40:15;;;;;;;9.50;2.85;;;;;;;;;;6284159;22;20018;-91
2023/01/01 15:43:01;;;;;;;18.67;3.45;;;;;;;;;;6284027;22;20026;-91
2023/01/01 15:46:08;;;;;;;;;;;;;;;;;;;;;
2023/01/01 16:10:51;;;;;;;18.42;3.50;;;;;;;;;;6022384;23;20030;-95
2023/01/01 16:42:34;;;;;;;18.98;4.80;;;;;;;;;;5928665;23;20024;-90
2023/01/01 16:45:19;;;;;;;15.77;4.57;;;;;;;;;;6151475;23;20015;-88
2023/01/01 16:48:08;;;;;;;18.73;5.95;;;;;;;;;;6252617;22;20091;-89
2023/01/01 16:50:53;;;;;;;18.42;5.15;;;;;;;;;;6252562;22;20010;-88
2023/01/01 16:53:49;;;;;;;18.85;5.53;;;;;;;;;;6274158;22;20479;-87
2023/01/01 16:56:34;;;;;;;22.77;5.60;;;;;;;;;;6264670;22;20030;-87
2023/01/01 16:59:44;;;;;;;12.85;3.70;;;11.00;99.90;;;;;;6284106;22;20023;-89
2023/01/01 17:02:29;;;;;;;17.38;4.40;;;;;;;;;;6284165;22;20017;-89
2023/01/01 17:05:21;;;;;;;12.80;3.30;;;;;;;;;;6284586;22;20014;-89
2023/01/01 17:08:15;;;;;;;19.33;3.83;;;;;;;;;;6263296;22;20022;-89
2023/01/01 17:11:01;;;;;;;;;;;10.90;99.90;;;;;;6284990;22;20010;-89
2023/01/01 17:13:49;;;;;;;16.92;3.80;;;10.90;99.90;;;;;;6284370;22;19910;-89
2023/01/01 17:16:44;;;;;;;;;;;;;;;;;;;;;
2023/01/01 17:19:28;;;;;;;17.80;4.30;;;;;;;;;;6307263;22;20041;-89
2023/01/01 17:22:13;;;;;;;15.18;3.67;;;;;;;;;;6283336;22;20017;-89
2023/01/01 17:25:00;;;;;;;22.65;4.13;;;;;;;;;;6283767;22;20078;-90
2023/01/01 17:27:45;;;;;;;20.67;4.40;;;;;;;;;;6284381;22;20092;-91
2023/01/01 17:30:35;;;;;;;13.35;4.32;;;;;;;;;;6307197;22;20014;-89
2023/01/01 17:33:20;;;;;;;20.52;4.10;;;;;;;;;;6262437;22;20341;-90
2023/01/01 17:36:15;;;;;;;20.10;4.80;;;;;;;;;;6281827;22;20014;-89
2023/01/01 17:39:00;;;;;;;12.43;3.85;;;;;;;;;;6283909;22;20023;-89
2023/01/01 17:41:48;;;;;;;15.82;5.35;;;;;;;;;;6283490;22;20014;-91
2023/01/01 17:44:40;;;;;;;18.77;5.07;;;;;;;;;;6284238;22;20040;-89
2023/01/01 17:47:32;;;;;;;14.70;4.68;;;;;;;;;;6263555;22;20014;-89
2023/01/01 17:50:18;;;;;;;18.42;4.97;;;;;;;;;;6284436;22;20018;-89
2023/01/01 17:53:11;;;;;;;16.05;5.35;;;;;;;;;;6284055;22;20018;-88
2023/01/01 17:56:06;;;;;;;;;;;;;;;;;;;;;
2023/01/01 17:58:54;;;;;;;18.17;7.60;;;11.20;99.90;;;;;;6307644;22;20018;-88
2023/01/01 18:01:39;;;;;;;20.83;11.30;;;;;;;;;;6284067;22;20333;-87
2023/01/01 18:04:29;;;;;;;22.65;10.05;;;;;;;;;;6284084;22;20014;-91
2023/01/01 18:07:21;;;;;;;28.50;13.77;;;;;;;;;;6284512;22;20014;-89
2023/01/01 18:10:14;;;;;;;23.13;10.13;;;;;;;;;;6284292;22;20018;-89
2023/01/01 18:13:05;;;;;;;13.45;5.03;;;;;;;;;;6264648;22;20030;-89
2023/01/01 18:15:58;;;;;;;17.75;6.03;;;;;;;;;;6284397;22;20072;-89
2023/01/01 18:18:45;;;;;;;17.90;4.60;;;;;;;;;;6283893;22;20101;-89
2023/01/01 18:25:54;;;;;;;25.00;6.28;;;;;;;;;;6094353;23;20788;-92